createdAt,value
2023-05-17T00:00:02.287Z,6.40
2023-05-17T00:02:30.545Z,6.40
2023-05-17T00:04:58.813Z,6.40
2023-05-17T00:07:28.227Z,6.40
2023-05-17T00:09:56.279Z,6.30
2023-05-17T00:12:24.377Z,6.40
2023-05-17T00:14:53.566Z,6.50
2023-05-17T00:17:21.588Z,6.50
2023-05-17T00:19:49.866Z,6.60
2023-05-17T00:22:18.062Z,6.50
2023-05-17T00:24:47.410Z,6.60
2023-05-17T00:27:15.436Z,6.60
2023-05-17T00:29:43.506Z,6.60
2023-05-17T00:32:11.708Z,6.60
2023-05-17T00:34:40.015Z,6.60
2023-05-17T00:37:08.119Z,6.60
2023-05-17T00:39:36.112Z,6.60
2023-05-17T00:42:06.085Z,6.50
2023-05-17T00:44:34.156Z,6.50
2023-05-17T00:47:03.192Z,6.50
2023-05-17T00:49:31.348Z,6.40
2023-05-17T00:52:00.253Z,6.40
2023-05-17T00:54:28.396Z,6.50
2023-05-17T00:56:57.732Z,6.50
2023-05-17T00:59:28.012Z,6.40
2023-05-17T01:01:57.016Z,6.30
2023-05-17T01:04:25.797Z,6.20
2023-05-17T01:06:53.970Z,6.20
2023-05-17T01:09:21.964Z,6.10
2023-05-17T01:11:58.070Z,6.20
2023-05-17T01:14:40.047Z,6.20
2023-05-17T01:17:13.468Z,6.20
2023-05-17T01:19:58.049Z,6.10
2023-05-17T01:22:45.142Z,6.10
2023-05-17T01:25:27.892Z,5.90
2023-05-17T01:28:00.789Z,5.80
2023-05-17T01:30:31.405Z,5.70
2023-05-17T01:33:00.192Z,5.60
2023-05-17T01:35:28.573Z,5.50
2023-05-17T01:37:56.873Z,5.50
2023-05-17T01:40:25.386Z,5.50
2023-05-17T01:43:04.423Z,5.40
2023-05-17T01:45:37.092Z,5.30
2023-05-17T01:48:16.718Z,5.20
2023-05-17T01:50:47.752Z,5.10
2023-05-17T01:53:21.434Z,5.10
2023-05-17T01:55:52.904Z,5.10
2023-05-17T01:58:26.139Z,5.10
2023-05-17T02:00:57.129Z,5.10
2023-05-17T02:03:25.740Z,5.20
2023-05-17T02:05:54.000Z,5.10
2023-05-17T02:08:22.233Z,5.10
2023-05-17T02:10:50.235Z,5.10
2023-05-17T02:13:18.230Z,5.10
2023-05-17T02:15:47.594Z,5.10
2023-05-17T02:18:15.683Z,5.10
2023-05-17T02:20:43.791Z,5.10
2023-05-17T02:23:11.822Z,5.10
2023-05-17T02:25:39.861Z,5.10
2023-05-17T02:28:07.905Z,5.00
2023-05-17T02:30:35.912Z,4.90
2023-05-17T02:33:05.583Z,4.90
2023-05-17T02:35:33.706Z,4.90
2023-05-17T02:38:03.000Z,4.80
2023-05-17T02:40:31.177Z,4.80
2023-05-17T02:42:59.216Z,4.80
2023-05-17T02:45:27.469Z,4.80
2023-05-17T02:47:55.660Z,4.80
2023-05-17T02:50:25.168Z,4.80
2023-05-17T02:52:53.262Z,4.70
2023-05-17T02:55:21.599Z,4.60
2023-05-17T02:57:49.616Z,4.50
2023-05-17T03:00:18.602Z,4.50
2023-05-17T03:02:46.661Z,4.50
2023-05-17T03:05:14.884Z,4.40
2023-05-17T03:07:44.350Z,4.30
2023-05-17T03:10:12.483Z,4.20
2023-05-17T03:12:40.437Z,4.20
2023-05-17T03:15:09.395Z,4.20
2023-05-17T03:17:37.586Z,4.00
2023-05-17T03:20:07.874Z,4.00
2023-05-17T03:22:35.919Z,3.90
2023-05-17T03:25:06.854Z,3.90
2023-05-17T03:27:34.983Z,3.80
2023-05-17T03:30:03.098Z,3.70
2023-05-17T03:32:31.197Z,3.70
2023-05-17T03:34:59.431Z,3.80
2023-05-17T03:37:27.464Z,3.70
2023-05-17T03:39:55.722Z,3.70
2023-05-17T03:42:25.079Z,3.70
2023-05-17T03:44:53.483Z,3.80
2023-05-17T03:47:23.873Z,3.90
2023-05-17T03:49:52.018Z,3.90
2023-05-17T03:52:20.107Z,3.90
2023-05-17T03:54:48.428Z,3.90
2023-05-17T03:57:16.544Z,3.90
2023-05-17T03:59:45.936Z,3.90
2023-05-17T04:02:16.055Z,3.90
2023-05-17T04:04:50.821Z,4.00
2023-05-17T04:07:19.060Z,4.00
2023-05-17T04:09:47.516Z,4.10
2023-05-17T04:12:15.580Z,4.20
2023-05-17T04:14:44.892Z,4.40
2023-05-17T04:17:13.311Z,4.60
2023-05-17T04:19:42.527Z,4.70
2023-05-17T04:22:10.613Z,4.80
2023-05-17T04:24:38.632Z,4.90
2023-05-17T04:27:08.068Z,5.10
2023-05-17T04:29:36.271Z,5.30
2023-05-17T04:32:06.306Z,5.70
2023-05-17T04:34:34.320Z,6.30
2023-05-17T04:37:02.386Z,7.00
2023-05-17T04:39:31.234Z,7.60
2023-05-17T04:41:59.397Z,7.80
2023-05-17T04:44:27.773Z,8.10
2023-05-17T04:46:55.824Z,8.60
2023-05-17T04:49:26.182Z,9.20
2023-05-17T04:51:54.278Z,9.60
2023-05-17T04:54:22.262Z,9.90
2023-05-17T04:56:50.575Z,9.90
2023-05-17T04:59:18.596Z,10.20
2023-05-17T05:01:46.591Z,10.30
2023-05-17T05:04:14.714Z,10.90
2023-05-17T05:06:44.187Z,10.90
2023-05-17T05:09:13.825Z,11.40
2023-05-17T05:11:41.792Z,12.00
2023-05-17T05:14:09.852Z,12.20
2023-05-17T05:16:37.877Z,12.30
2023-05-17T05:19:06.955Z,13.10
2023-05-17T05:21:35.025Z,13.30
2023-05-17T05:24:04.869Z,14.20
2023-05-17T05:26:33.076Z,14.80
2023-05-17T05:29:01.152Z,14.80
2023-05-17T05:31:29.468Z,15.30
2023-05-17T05:33:57.542Z,15.40
2023-05-17T05:36:25.631Z,15.30
2023-05-17T05:38:54.820Z,15.20
2023-05-17T05:41:24.248Z,15.00
2023-05-17T05:43:55.220Z,15.20
2023-05-17T05:46:23.373Z,15.50
2023-05-17T05:48:51.682Z,14.70
2023-05-17T05:51:22.511Z,15.40
2023-05-17T05:53:51.179Z,16.10
2023-05-17T05:56:19.275Z,16.40
2023-05-17T05:58:48.713Z,17.00
2023-05-17T06:01:16.813Z,17.50
2023-05-17T06:03:44.890Z,18.50
2023-05-17T06:06:13.098Z,18.20
2023-05-17T06:08:41.198Z,16.70
2023-05-17T06:11:09.316Z,16.70
2023-05-17T06:13:37.372Z,17.20
2023-05-17T06:16:07.478Z,17.90
2023-05-17T06:18:35.757Z,17.90
2023-05-17T06:21:06.707Z,17.80
2023-05-17T06:23:34.770Z,18.00
2023-05-17T06:26:02.765Z,18.00
2023-05-17T06:28:31.063Z,18.10
2023-05-17T06:31:00.439Z,18.30
2023-05-17T06:33:29.946Z,19.00
2023-05-17T06:35:58.574Z,18.10
2023-05-17T06:38:27.354Z,18.80
2023-05-17T06:40:55.846Z,18.20
2023-05-17T06:43:24.243Z,16.90
2023-05-17T06:45:52.439Z,16.90
2023-05-17T06:48:20.872Z,16.40
2023-05-17T06:50:50.412Z,16.00
2023-05-17T06:53:22.543Z,14.70
2023-05-17T06:55:50.605Z,14.40
2023-05-17T06:58:24.256Z,14.00
2023-05-17T07:00:53.434Z,12.70
2023-05-17T07:03:24.501Z,12.10
2023-05-17T07:05:53.934Z,11.80
2023-05-17T07:08:22.213Z,11.70
2023-05-17T07:10:54.041Z,11.60
2023-05-17T07:13:22.121Z,11.70
2023-05-17T07:15:50.176Z,12.20
2023-05-17T07:18:18.384Z,11.80
2023-05-17T07:20:46.787Z,11.50
2023-05-17T07:23:19.050Z,11.40
2023-05-17T07:25:47.101Z,11.90
2023-05-17T07:28:15.183Z,11.50
2023-05-17T07:30:43.303Z,11.30
2023-05-17T07:33:11.793Z,11.50
2023-05-17T07:35:39.912Z,11.20
2023-05-17T07:38:07.951Z,10.90
2023-05-17T07:40:37.409Z,10.50
2023-05-17T07:43:05.944Z,10.80
2023-05-17T07:45:34.079Z,11.20
2023-05-17T07:48:02.171Z,10.60
2023-05-17T07:50:30.607Z,11.00
2023-05-17T07:52:58.667Z,11.50
2023-05-17T07:55:26.754Z,11.60
2023-05-17T07:57:56.229Z,11.50
2023-05-17T08:00:25.586Z,11.20
2023-05-17T08:02:53.799Z,11.00
2023-05-17T08:05:22.337Z,11.10
2023-05-17T08:07:50.442Z,11.20
2023-05-17T08:10:18.616Z,11.30
2023-05-17T08:12:46.778Z,11.50
2023-05-17T08:15:16.201Z,11.00
2023-05-17T08:17:45.262Z,10.90
2023-05-17T08:20:13.953Z,10.90
2023-05-17T08:22:43.278Z,11.20
2023-05-17T08:25:11.596Z,11.20
2023-05-17T08:27:39.763Z,11.20
2023-05-17T08:30:11.792Z,10.90
2023-05-17T08:32:45.036Z,10.80
2023-05-17T08:35:13.895Z,10.50
2023-05-17T08:37:43.004Z,10.60
2023-05-17T08:40:11.683Z,10.90
2023-05-17T08:42:39.985Z,11.50
2023-05-17T08:45:10.964Z,11.90
2023-05-17T08:47:40.903Z,12.00
2023-05-17T08:50:12.866Z,12.00
2023-05-17T08:52:52.630Z,11.60
2023-05-17T08:55:20.966Z,11.70
2023-05-17T08:57:50.946Z,11.90
2023-05-17T09:00:24.900Z,11.90
2023-05-17T09:02:53.008Z,12.00
2023-05-17T09:05:22.761Z,12.00
2023-05-17T09:07:51.082Z,12.30
2023-05-17T09:10:19.478Z,12.00
2023-05-17T09:12:47.653Z,11.90
2023-05-17T09:15:17.913Z,11.90
2023-05-17T09:17:52.801Z,11.60
2023-05-17T09:20:26.431Z,11.70
2023-05-17T09:22:58.644Z,12.00
2023-05-17T09:25:26.804Z,12.00
2023-05-17T09:27:54.954Z,12.20
2023-05-17T09:30:29.454Z,12.00
2023-05-17T09:32:58.739Z,12.20
2023-05-17T09:35:32.465Z,12.10
2023-05-17T09:38:10.308Z,12.00
2023-05-17T09:40:44.035Z,12.00
2023-05-17T09:43:13.349Z,12.10
2023-05-17T09:45:41.943Z,11.90
2023-05-17T09:48:16.880Z,11.90
2023-05-17T09:50:47.416Z,12.10
2023-05-17T09:53:25.386Z,12.10
2023-05-17T09:55:54.307Z,12.00
2023-05-17T09:58:23.798Z,11.90
2023-05-17T10:00:54.309Z,11.90
2023-05-17T10:03:25.356Z,11.60
2023-05-17T10:05:55.070Z,11.80
2023-05-17T10:08:26.085Z,12.10
2023-05-17T10:10:56.161Z,11.80
2023-05-17T10:13:27.188Z,12.00
2023-05-17T10:15:55.695Z,12.20
2023-05-17T10:18:24.603Z,12.30
2023-05-17T10:20:54.316Z,12.30
2023-05-17T10:23:23.355Z,12.40
2023-05-17T10:25:51.897Z,12.30
2023-05-17T10:28:22.078Z,12.20
2023-05-17T10:30:52.252Z,12.10
2023-05-17T10:33:22.984Z,12.00
2023-05-17T10:35:52.088Z,11.80
2023-05-17T10:38:26.183Z,12.10
2023-05-17T10:40:59.351Z,12.50
2023-05-17T10:43:31.201Z,12.40
2023-05-17T10:46:00.307Z,12.60
2023-05-17T10:48:31.050Z,12.70
2023-05-17T10:51:06.167Z,13.10
2023-05-17T10:53:36.323Z,13.10
2023-05-17T10:56:04.378Z,13.10
2023-05-17T10:58:32.482Z,12.90
2023-05-17T11:01:00.535Z,13.00
2023-05-17T11:03:30.378Z,12.70
2023-05-17T11:06:24.741Z,12.70
2023-05-17T11:09:16.445Z,12.80
2023-05-17T11:12:06.064Z,13.00
2023-05-17T11:14:51.058Z,13.20
2023-05-17T11:17:21.035Z,13.40
2023-05-17T11:20:13.258Z,13.40
2023-05-17T11:22:43.274Z,13.10
2023-05-17T11:25:14.311Z,13.10
2023-05-17T11:27:47.560Z,13.00
2023-05-17T11:30:22.680Z,13.10
2023-05-17T11:32:52.420Z,13.30
2023-05-17T11:35:24.614Z,13.30
2023-05-17T11:37:57.260Z,13.10
2023-05-17T11:40:29.769Z,13.00
2023-05-17T11:43:23.086Z,12.90
2023-05-17T11:45:53.648Z,12.90
2023-05-17T11:48:23.287Z,13.10
2023-05-17T11:50:53.509Z,13.50
2023-05-17T11:53:22.230Z,13.80
2023-05-17T11:55:53.030Z,13.80
2023-05-17T11:58:26.119Z,13.70
2023-05-17T12:00:56.845Z,13.70
2023-05-17T12:03:25.963Z,13.20
2023-05-17T12:06:04.034Z,12.90
2023-05-17T12:08:34.204Z,12.90
2023-05-17T12:11:04.624Z,12.80
2023-05-17T12:13:34.365Z,12.60
2023-05-17T12:16:05.984Z,12.50
2023-05-17T12:18:38.653Z,12.80
2023-05-17T12:21:08.546Z,13.30
2023-05-17T12:23:41.053Z,13.70
2023-05-17T12:26:12.334Z,13.70
2023-05-17T12:28:41.921Z,13.60
2023-05-17T12:31:12.880Z,13.40
2023-05-17T12:33:43.648Z,13.30
2023-05-17T12:36:13.653Z,13.30
2023-05-17T12:38:47.297Z,13.00
2023-05-17T12:41:18.334Z,13.30
2023-05-17T12:43:47.058Z,13.50
2023-05-17T12:46:17.849Z,13.50
2023-05-17T12:48:46.515Z,13.80
2023-05-17T12:51:16.098Z,14.20
2023-05-17T12:53:45.717Z,14.20
2023-05-17T12:56:19.486Z,13.90
2023-05-17T12:59:06.027Z,13.70
2023-05-17T13:01:35.589Z,13.40
2023-05-17T13:04:03.872Z,13.50
2023-05-17T13:06:45.344Z,13.50
2023-05-17T13:09:14.316Z,13.20
2023-05-17T13:11:44.211Z,13.40
2023-05-17T13:14:13.548Z,13.50
2023-05-17T13:16:42.841Z,13.60
2023-05-17T13:19:14.836Z,13.50
2023-05-17T13:21:43.110Z,13.30
2023-05-17T13:24:11.443Z,13.10
2023-05-17T13:26:40.664Z,13.30
2023-05-17T13:29:10.115Z,13.60
2023-05-17T13:31:38.302Z,13.60
2023-05-17T13:34:06.595Z,13.60
2023-05-17T13:36:34.700Z,13.30
2023-05-17T13:39:02.938Z,13.20
2023-05-17T13:41:31.192Z,13.40
2023-05-17T13:43:59.234Z,13.30
2023-05-17T13:46:28.722Z,13.20
2023-05-17T13:48:56.792Z,13.40
2023-05-17T13:51:25.475Z,13.40
2023-05-17T13:53:53.588Z,13.30
2023-05-17T13:56:22.403Z,13.20
2023-05-17T13:58:50.889Z,13.10
2023-05-17T14:01:19.732Z,12.90
2023-05-17T14:03:49.054Z,13.30
2023-05-17T14:06:17.136Z,13.20
2023-05-17T14:08:48.029Z,13.20
2023-05-17T14:11:16.164Z,12.50
2023-05-17T14:13:44.346Z,12.80
2023-05-17T14:16:12.354Z,13.10
2023-05-17T14:18:40.673Z,13.30
2023-05-17T14:21:10.170Z,13.50
2023-05-17T14:23:38.210Z,13.60
2023-05-17T14:26:07.389Z,13.80
2023-05-17T14:28:38.253Z,14.00
2023-05-17T14:31:07.484Z,13.80
2023-05-17T14:33:35.928Z,13.40
2023-05-17T14:36:04.704Z,13.20
2023-05-17T14:38:34.216Z,12.80
2023-05-17T14:41:03.296Z,12.70
2023-05-17T14:43:31.653Z,12.60
2023-05-17T14:45:59.816Z,12.50
2023-05-17T14:48:27.928Z,12.50
2023-05-17T14:50:56.124Z,12.40
2023-05-17T14:53:29.114Z,12.40
2023-05-17T14:55:58.971Z,12.30
2023-05-17T14:58:27.169Z,12.50
2023-05-17T15:01:05.672Z,12.50
2023-05-17T15:03:35.422Z,12.50
2023-05-17T15:06:06.831Z,12.50
2023-05-17T15:08:35.842Z,12.50
2023-05-17T15:11:05.351Z,12.30
2023-05-17T15:13:33.347Z,12.00
2023-05-17T15:16:02.811Z,12.20
2023-05-17T15:18:31.397Z,12.50
2023-05-17T15:20:59.441Z,12.70
2023-05-17T15:23:27.469Z,12.60
2023-05-17T15:25:55.783Z,12.50
2023-05-17T15:28:25.166Z,12.30
2023-05-17T15:31:01.734Z,12.50
2023-05-17T15:33:30.792Z,12.90
2023-05-17T15:35:58.846Z,12.90
2023-05-17T15:38:27.067Z,12.90
2023-05-17T15:41:04.412Z,12.90
2023-05-17T15:43:35.376Z,12.70
2023-05-17T15:46:03.598Z,12.70
2023-05-17T15:48:31.666Z,12.70
2023-05-17T15:50:59.882Z,12.70
2023-05-17T15:53:29.059Z,12.80
2023-05-17T15:55:57.366Z,12.60
2023-05-17T15:58:27.853Z,12.70
2023-05-17T16:00:57.299Z,12.80
2023-05-17T16:03:25.471Z,12.80
2023-05-17T16:05:53.577Z,12.80
2023-05-17T16:08:21.757Z,12.60
2023-05-17T16:10:49.714Z,12.50
2023-05-17T16:13:18.110Z,12.40
2023-05-17T16:15:46.167Z,12.40
2023-05-17T16:18:16.349Z,12.50
2023-05-17T16:20:45.134Z,12.60
2023-05-17T16:23:13.346Z,12.60
2023-05-17T16:25:41.507Z,13.00
2023-05-17T16:28:09.559Z,13.20
2023-05-17T16:30:38.136Z,13.30
2023-05-17T16:33:08.398Z,13.30
2023-05-17T16:35:37.971Z,13.10
2023-05-17T16:38:05.999Z,12.60
2023-05-17T16:40:34.378Z,12.40
2023-05-17T16:43:02.395Z,12.50
2023-05-17T16:45:30.621Z,12.50
2023-05-17T16:47:58.927Z,12.60
2023-05-17T16:50:27.009Z,12.30
2023-05-17T16:52:56.472Z,12.20
2023-05-17T16:55:25.213Z,12.20
2023-05-17T16:57:53.337Z,12.20
2023-05-17T17:00:21.739Z,12.20
2023-05-17T17:02:49.918Z,12.10
2023-05-17T17:05:20.263Z,12.30
2023-05-17T17:07:48.272Z,12.30
2023-05-17T17:10:17.783Z,12.40
2023-05-17T17:12:45.796Z,12.10
2023-05-17T17:15:14.035Z,11.90
2023-05-17T17:17:42.483Z,11.80
2023-05-17T17:20:11.806Z,11.70
2023-05-17T17:22:39.834Z,11.60
2023-05-17T17:25:09.004Z,11.50
2023-05-17T17:27:38.499Z,11.40
2023-05-17T17:30:07.708Z,11.20
2023-05-17T17:32:35.837Z,11.10
2023-05-17T17:35:04.088Z,10.90
2023-05-17T17:37:32.385Z,11.00
2023-05-17T17:40:00.353Z,11.10
2023-05-17T17:42:30.204Z,11.00
2023-05-17T17:45:00.819Z,11.00
2023-05-17T17:47:33.795Z,11.20
2023-05-17T17:50:01.823Z,11.10
2023-05-17T17:52:29.824Z,11.10
2023-05-17T17:54:57.889Z,11.20
2023-05-17T17:57:28.721Z,11.20
2023-05-17T17:59:57.964Z,11.50
2023-05-17T18:02:27.486Z,11.70
2023-05-17T18:04:55.768Z,11.90
2023-05-17T18:07:23.843Z,11.70
2023-05-17T18:09:52.361Z,11.50
2023-05-17T18:12:20.701Z,11.40
2023-05-17T18:14:48.910Z,11.30
2023-05-17T18:17:16.956Z,11.10
2023-05-17T18:19:48.109Z,10.90
2023-05-17T18:22:17.186Z,10.80
2023-05-17T18:24:45.542Z,10.80
2023-05-17T18:27:14.259Z,10.70
2023-05-17T18:29:42.767Z,10.60
2023-05-17T18:32:11.284Z,10.40
2023-05-17T18:34:39.348Z,10.30
2023-05-17T18:37:08.766Z,10.20
2023-05-17T18:39:37.049Z,10.10
2023-05-17T18:42:05.555Z,9.90
2023-05-17T18:44:34.852Z,9.90
2023-05-17T18:47:06.198Z,9.90
2023-05-17T18:49:34.465Z,9.90
2023-05-17T18:52:02.508Z,9.80
2023-05-17T18:54:32.190Z,9.70
2023-05-17T18:57:00.172Z,9.60
2023-05-17T18:59:28.190Z,9.50
2023-05-17T19:01:56.212Z,9.40
2023-05-17T19:04:24.345Z,9.30
2023-05-17T19:06:53.937Z,9.20
2023-05-17T19:09:21.937Z,9.10
2023-05-17T19:11:53.747Z,9.10
2023-05-17T19:14:21.786Z,9.00
2023-05-17T19:16:51.653Z,8.90
2023-05-17T19:19:22.095Z,8.80
2023-05-17T19:21:50.433Z,8.70
2023-05-17T19:24:18.706Z,8.60
2023-05-17T19:26:46.817Z,8.60
2023-05-17T19:29:16.222Z,8.50
2023-05-17T19:31:44.390Z,8.50
2023-05-17T19:34:12.451Z,8.40
2023-05-17T19:36:40.566Z,8.40
2023-05-17T19:39:08.639Z,8.40
2023-05-17T19:41:36.713Z,8.40
2023-05-17T19:44:04.848Z,8.30
2023-05-17T19:46:34.346Z,8.30
2023-05-17T19:49:02.522Z,8.30
2023-05-17T19:51:31.501Z,8.30
2023-05-17T19:53:59.602Z,8.30
2023-05-17T19:56:28.050Z,8.30
2023-05-17T19:58:56.123Z,8.30
2023-05-17T20:01:25.296Z,8.30
2023-05-17T20:03:54.847Z,8.30
2023-05-17T20:06:22.914Z,8.30
2023-05-17T20:08:50.971Z,8.30
2023-05-17T20:11:19.052Z,8.30
2023-05-17T20:13:47.069Z,8.30
2023-05-17T20:16:15.245Z,8.30
2023-05-17T20:18:44.429Z,8.30
2023-05-17T20:21:18.250Z,8.30
2023-05-17T20:23:46.412Z,8.30
2023-05-17T20:26:16.998Z,8.20
2023-05-17T20:28:45.771Z,8.10
2023-05-17T20:31:14.124Z,8.20
2023-05-17T20:33:44.197Z,8.10
2023-05-17T20:36:14.640Z,8.10
2023-05-17T20:38:43.902Z,8.00
2023-05-17T20:41:12.834Z,7.90
2023-05-17T20:43:40.964Z,7.80
2023-05-17T20:46:09.889Z,7.80
2023-05-17T20:48:38.951Z,7.70
2023-05-17T20:51:07.033Z,7.70
2023-05-17T20:53:36.895Z,7.70
2023-05-17T20:56:05.209Z,7.60
2023-05-17T20:58:36.007Z,7.60
2023-05-17T21:01:05.719Z,7.50
2023-05-17T21:03:35.047Z,7.40
2023-05-17T21:06:05.278Z,7.40
2023-05-17T21:08:34.001Z,7.30
2023-05-17T21:11:03.799Z,7.30
2023-05-17T21:13:31.994Z,7.20
2023-05-17T21:16:04.452Z,7.10
2023-05-17T21:18:32.533Z,7.10
2023-05-17T21:21:03.082Z,7.10
2023-05-17T21:23:31.292Z,7.10
2023-05-17T21:25:59.482Z,7.00
2023-05-17T21:28:29.952Z,7.00
2023-05-17T21:30:58.147Z,7.00
2023-05-17T21:33:26.314Z,6.90
2023-05-17T21:35:57.118Z,6.90
2023-05-17T21:38:25.554Z,7.00
2023-05-17T21:40:55.451Z,6.90
2023-05-17T21:43:23.562Z,6.90
2023-05-17T21:45:54.875Z,6.80
2023-05-17T21:48:22.874Z,6.70
2023-05-17T21:50:53.470Z,6.70
2023-05-17T21:53:32.568Z,6.60
2023-05-17T21:56:02.920Z,6.60
2023-05-17T21:58:34.281Z,6.60
2023-05-17T22:01:07.759Z,6.50
2023-05-17T22:03:41.674Z,6.50
2023-05-17T22:06:12.650Z,6.50
2023-05-17T22:08:42.542Z,6.40
2023-05-17T22:11:10.978Z,6.40
2023-05-17T22:13:39.028Z,6.40
2023-05-17T22:16:13.961Z,6.40
2023-05-17T22:18:42.068Z,6.40
2023-05-17T22:21:14.489Z,6.30
2023-05-17T22:23:43.264Z,6.30
2023-05-17T22:26:11.529Z,6.30
2023-05-17T22:28:39.555Z,6.30
2023-05-17T22:31:08.267Z,6.30
2023-05-17T22:33:37.767Z,6.40
2023-05-17T22:36:14.163Z,6.30
2023-05-17T22:38:44.924Z,6.30
2023-05-17T22:41:13.975Z,6.30
2023-05-17T22:43:46.079Z,6.20
2023-05-17T22:46:14.164Z,6.10
2023-05-17T22:48:43.602Z,6.00
2023-05-17T22:51:12.656Z,5.90
2023-05-17T22:53:49.066Z,5.80
2023-05-17T22:56:17.141Z,5.70
2023-05-17T22:58:45.189Z,5.70
2023-05-17T23:01:14.394Z,5.60
2023-05-17T23:03:46.715Z,5.60
2023-05-17T23:06:23.098Z,5.50
2023-05-17T23:08:55.104Z,5.40
2023-05-17T23:11:23.138Z,5.30
2023-05-17T23:13:51.242Z,5.30
2023-05-17T23:16:19.562Z,5.30
2023-05-17T23:18:49.208Z,5.20
2023-05-17T23:21:18.427Z,5.30
2023-05-17T23:23:51.209Z,5.20
2023-05-17T23:26:19.151Z,5.20
2023-05-17T23:28:50.316Z,5.20
2023-05-17T23:31:18.411Z,5.30
2023-05-17T23:33:48.054Z,5.10
2023-05-17T23:36:16.456Z,5.00
2023-05-17T23:38:49.384Z,4.90
2023-05-17T23:41:18.383Z,4.80
2023-05-17T23:43:48.790Z,4.80
2023-05-17T23:46:21.902Z,4.70
2023-05-17T23:48:54.214Z,4.70
2023-05-17T23:51:25.714Z,4.70
2023-05-17T23:53:53.765Z,4.70
2023-05-17T23:56:25.966Z,4.70
2023-05-17T23:58:53.993Z,4.70
